Terminal Aerodrome Forecast
Issued by NWS Columbia, SC

Home | Current Version | Previous Version | Text Only | Print | Product List | Glossary On
Versions: 1 2 3 4 5 6 7 8 9 10 11 12 13 14 15 16 17 18 19 20 21 22 23 24 25 26 27 28 29 30 31 32 33 34 35 36 37 38 39 40 41 42 43 44 45 46 47 48 49
957
FTUS42 KCAE 211740
TAFAGS
TAF
KAGS 211740Z 2118/2218 20006KT 4SM TSRA BR SCT004 OVC030CB
      TEMPO 2118/2120 1SM TSRA BKN003CB
     FM212000 20009KT 2SM TSRA BR OVC006CB
     FM212300 20007KT 2SM BR BKN004
     FM220700 21006KT 1SM BR OVC001
      TEMPO 2208/2212 1/4SM TSRA BKN004CB
     FM221500 22012KT 4SM BR OVC015=

USA.gov is the U.S. government's official web portal to all federal, state and local government web resources and services.